Time;durP1;ratioP1;P1;durP2;ratioP2;P2;SDS_P1;SDS_P2;PMS_P1;PMS_P2;Temp;Humidity;BMP_temperature;BMP_pressure;BME280_temperature;BME280_humidity;BME280_pressure;Samples;Min_cycle;Max_cycle;Signal;HPM_P1;HPM_P2
2023/04/05 00:00:45;;;;;;;13.60;6.70;;;2.20;99.90;;;;;;5032595;28;20045;-80
2023/04/05 00:03:11;;;;;;;12.80;6.60;;;2.20;99.90;;;;;;5032917;28;20053;-81
2023/04/05 00:05:38;;;;;;;13.52;6.65;;;2.30;99.90;;;;;;5032275;28;20478;-81
2023/04/05 00:08:07;;;;;;;13.23;7.00;;;2.10;99.90;;;;;;5032482;28;20393;-80
2023/04/05 00:10:33;;;;;;;11.40;6.25;;;2.10;99.90;;;;;;5016315;28;20049;-82
2023/04/05 00:12:59;;;;;;;11.50;6.40;;;2.00;99.90;;;;;;5032603;28;20049;-82
2023/04/05 00:15:27;;;;;;;12.45;6.47;;;2.00;99.90;;;;;;5016285;28;20143;-80
2023/04/05 00:17:55;;;;;;;12.35;6.43;;;2.40;99.90;;;;;;5032119;28;20052;-80
2023/04/05 00:20:21;;;;;;;12.38;5.55;;;2.00;99.90;;;;;;5032581;28;20096;-81
2023/04/05 00:22:52;;;;;;;11.95;6.63;;;2.10;99.90;;;;;;5014804;28;20048;-81
2023/04/05 00:25:18;;;;;;;13.02;6.07;;;2.10;99.90;;;;;;5032615;28;20378;-80
2023/04/05 00:27:43;;;;;;;10.52;5.60;;;2.10;99.90;;;;;;5049196;28;20056;-80
2023/04/05 00:30:10;;;;;;;12.85;6.53;;;2.10;99.90;;;;;;5031960;28;20053;-80
2023/04/05 00:32:35;;;;;;;11.43;5.90;;;2.00;99.90;;;;;;5049038;28;20046;-81
2023/04/05 00:35:01;;;;;;;10.55;5.65;;;2.00;99.90;;;;;;5049062;28;20370;-80
2023/04/05 00:37:27;;;;;;;10.25;6.28;;;2.20;99.90;;;;;;5048412;28;20554;-81
2023/04/05 00:39:53;;;;;;;11.50;5.85;;;1.90;99.90;;;;;;5031793;28;20489;-81
2023/04/05 00:42:19;;;;;;;11.45;5.70;;;1.90;99.90;;;;;;5032502;28;20128;-80
2023/04/05 00:44:45;;;;;;;13.20;6.82;;;1.80;99.90;;;;;;5015944;28;20497;-81
2023/04/05 00:47:11;;;;;;;11.00;6.20;;;1.90;99.90;;;;;;5016017;28;20500;-80
2023/04/05 00:49:37;;;;;;;11.93;6.70;;;1.80;99.90;;;;;;4999617;28;20084;-81
2023/04/05 00:52:03;;;;;;;10.77;5.95;;;1.80;99.90;;;;;;5048409;28;20176;-81
2023/04/05 00:54:29;;;;;;;11.95;6.30;;;1.80;99.90;;;;;;5048718;28;20500;-81
2023/04/05 00:56:59;;;;;;;10.35;5.70;;;2.10;99.90;;;;;;5015600;28;20503;-80
2023/04/05 00:59:25;;;;;;;10.82;5.72;;;1.80;99.90;;;;;;5031942;28;20046;-80
2023/04/05 01:02:24;;;;;;;10.40;5.80;;;1.90;99.90;;;;;;5032204;28;20050;-80
2023/04/05 01:04:59;;;;;;;12.98;7.18;;;1.80;99.90;;;;;;5025655;28;20057;-80
2023/04/05 01:07:36;;;;;;;10.30;5.93;;;1.80;99.90;;;;;;5032302;28;20037;-80
2023/04/05 01:10:04;;;;;;;10.98;5.93;;;1.70;99.90;;;;;;5032217;28;20394;-80
2023/04/05 01:12:32;;;;;;;12.15;6.63;;;1.70;99.90;;;;;;5015496;28;20053;-80
2023/04/05 01:14:59;;;;;;;10.13;5.65;;;1.70;99.90;;;;;;5015640;28;20053;-80
2023/04/05 01:17:35;;;;;;;10.95;6.00;;;1.80;99.90;;;;;;5032183;28;20103;-80
2023/04/05 01:20:09;;;;;;;11.02;5.95;;;1.60;99.90;;;;;;5031766;28;20128;-80
2023/04/05 01:22:58;;;;;;;13.18;6.63;;;1.60;99.90;;;;;;5031993;28;20409;-82
2023/04/05 01:25:23;;;;;;;13.05;7.43;;;1.10;99.90;;;;;;5031917;28;20045;-80
2023/04/05 01:28:01;;;;;;;10.82;6.45;;;1.50;99.90;;;;;;5031709;28;20160;-80
2023/04/05 01:30:59;;;;;;;15.27;7.95;;;1.40;99.90;;;;;;5031790;28;20057;-80
2023/04/05 01:33:58;;;;;;;15.98;8.02;;;1.30;99.90;;;;;;4992566;28;20053;-79
2023/04/05 01:36:39;;;;;;;13.65;8.10;;;1.20;99.90;;;;;;5035598;28;20049;-80
2023/04/05 01:39:07;;;;;;;11.18;6.65;;;1.00;99.90;;;;;;5018856;28;20055;-80
2023/04/05 01:41:34;;;;;;;12.45;7.30;;;1.00;99.90;;;;;;5035302;28;20455;-80
2023/04/05 01:43:59;;;;;;;14.13;7.22;;;1.00;99.90;;;;;;5035098;28;20265;-80
2023/04/05 01:46:25;;;;;;;13.55;8.10;;;1.90;99.90;;;;;;5002839;28;20041;-80
2023/04/05 01:48:51;;;;;;;12.77;7.18;;;1.10;99.90;;;;;;5002620;28;20088;-79
2023/04/05 01:51:17;;;;;;;13.20;7.75;;;1.10;99.90;;;;;;5034635;28;20056;-80
2023/04/05 01:53:42;;;;;;;14.73;7.55;;;1.10;99.90;;;;;;5034652;28;20048;-80
2023/04/05 01:56:11;;;;;;;15.35;8.50;;;1.30;99.90;;;;;;4985815;28;20150;-79
2023/04/05 01:58:37;;;;;;;14.10;7.80;;;1.10;99.90;;;;;;5002790;28;20046;-80
2023/04/05 02:01:03;;;;;;;11.35;6.47;;;1.00;99.90;;;;;;5036075;28;20124;-79
2023/04/05 02:03:29;;;;;;;12.48;6.60;;;1.00;99.90;;;;;;5034669;28;20196;-79
2023/04/05 02:05:55;;;;;;;11.18;6.60;;;1.10;99.90;;;;;;5036073;28;20550;-79
2023/04/05 02:08:21;;;;;;;11.38;6.90;;;1.00;99.90;;;;;;5002360;28;20045;-79
2023/04/05 02:10:46;;;;;;;13.02;6.45;;;1.40;99.90;;;;;;5034853;28;20052;-79
2023/04/05 02:13:12;;;;;;;11.70;6.50;;;1.10;99.90;;;;;;5018171;28;20049;-79
2023/04/05 02:15:38;;;;;;;12.77;7.60;;;1.10;99.90;;;;;;5002137;28;20101;-79
2023/04/05 02:18:06;;;;;;;15.07;8.18;;;1.10;99.90;;;;;;5034417;28;20065;-80
2023/04/05 02:20:33;;;;;;;11.55;6.88;;;1.00;99.90;;;;;;5034619;28;20049;-79
2023/04/05 02:22:59;;;;;;;10.90;6.20;;;1.00;99.90;;;;;;5034709;28;20448;-78
2023/04/05 02:25:25;;;;;;;12.30;6.97;;;1.20;99.90;;;;;;5034132;28;20045;-78
2023/04/05 02:27:51;;;;;;;11.80;6.60;;;0.90;99.90;;;;;;5017809;28;20045;-79
2023/04/05 02:30:16;;;;;;;13.85;7.97;;;1.00;99.90;;;;;;5034583;28;20137;-78
2023/04/05 02:32:44;;;;;;;11.77;7.05;;;1.00;99.90;;;;;;5034247;28;20432;-78
2023/04/05 02:35:10;;;;;;;14.10;7.57;;;0.90;99.90;;;;;;5034547;28;20401;-78
2023/04/05 02:37:37;;;;;;;14.00;7.88;;;1.10;99.90;;;;;;5034107;28;20486;-79
2023/04/05 02:40:08;;;;;;;14.60;7.20;;;1.00;99.90;;;;;;5034122;28;20155;-78
2023/04/05 02:42:34;;;;;;;12.52;7.13;;;0.80;99.90;;;;;;5018243;28;20064;-78
2023/04/05 02:45:00;;;;;;;12.27;6.95;;;0.80;99.90;;;;;;5016358;28;20497;-79
2023/04/05 02:47:25;;;;;;;12.45;6.50;;;0.90;99.90;;;;;;5033979;28;20053;-79
2023/04/05 02:49:51;;;;;;;10.68;6.63;;;0.90;99.90;;;;;;5001277;28;20053;-78
2023/04/05 02:52:17;;;;;;;12.07;7.10;;;0.90;99.90;;;;;;5033742;28;20048;-78
2023/04/05 02:54:43;;;;;;;12.20;7.07;;;0.90;99.90;;;;;;5000964;28;20061;-78
2023/04/05 02:57:10;;;;;;;17.73;9.38;;;0.90;99.90;;;;;;5017739;28;20050;-78
2023/04/05 02:59:37;;;;;;;12.38;7.75;;;0.80;99.90;;;;;;5034045;28;20363;-79
2023/04/05 03:02:06;;;;;;;14.52;7.97;;;0.70;99.90;;;;;;5033692;28;20049;-79
2023/04/05 03:04:33;;;;;;;12.10;7.43;;;0.70;99.90;;;;;;5017931;28;20397;-79
2023/04/05 03:07:03;;;;;;;14.75;8.43;;;0.90;99.90;;;;;;5033504;28;20489;-78
2023/04/05 03:09:33;;;;;;;17.95;10.27;;;0.70;99.90;;;;;;5017552;28;20516;-79
2023/04/05 03:12:01;;;;;;;17.02;9.88;;;0.50;99.90;;;;;;5017479;28;20045;-79
2023/04/05 03:14:27;;;;;;;11.82;7.40;;;0.50;99.90;;;;;;5033781;28;20053;-79
2023/04/05 03:16:52;;;;;;;13.18;7.53;;;0.40;99.90;;;;;;5033388;28;20497;-78
2023/04/05 03:19:21;;;;;;;12.45;7.45;;;0.40;99.90;;;;;;5033629;28;20045;-79
2023/04/05 03:21:47;;;;;;;13.15;7.50;;;0.40;99.90;;;;;;5016919;28;20049;-79
2023/04/05 03:24:14;;;;;;;16.55;8.27;;;1.30;99.90;;;;;;5017095;28;20061;-79
2023/04/05 03:26:47;;;;;;;13.10;7.68;;;0.50;99.90;;;;;;5050169;28;20049;-78
2023/04/05 03:29:12;;;;;;;16.63;9.85;;;0.50;99.90;;;;;;5049875;28;20129;-78
2023/04/05 03:31:38;;;;;;;13.07;7.55;;;0.40;99.90;;;;;;5016873;28;20069;-78
2023/04/05 03:34:04;;;;;;;13.63;7.68;;;0.40;99.90;;;;;;5050030;28;20053;-78
2023/04/05 03:36:42;;;;;;;16.25;8.68;;;0.40;99.90;;;;;;5032894;28;20052;-78
2023/04/05 03:39:09;;;;;;;13.80;7.82;;;0.40;99.90;;;;;;5049666;28;20053;-78
2023/04/05 03:41:36;;;;;;;14.85;8.88;;;0.40;99.90;;;;;;5033257;28;20053;-78
2023/04/05 03:44:02;;;;;;;16.70;10.10;;;0.40;99.90;;;;;;5016601;28;20049;-78
2023/04/05 03:46:27;;;;;;;13.63;7.55;;;0.40;99.90;;;;;;5016880;28;20046;-78
2023/04/05 03:48:53;;;;;;;12.05;7.30;;;0.30;99.90;;;;;;5016666;28;20088;-78
2023/04/05 03:51:19;;;;;;;12.68;7.72;;;0.30;99.90;;;;;;5016601;28;20148;-78
2023/04/05 03:53:45;;;;;;;12.27;7.53;;;0.40;99.90;;;;;;5032682;28;20480;-78
2023/04/05 03:56:11;;;;;;;13.50;7.50;;;0.40;99.90;;;;;;5032023;28;20115;-78
2023/04/05 03:58:37;;;;;;;14.00;8.70;;;0.70;99.90;;;;;;5032929;28;20089;-78
2023/04/05 04:01:03;;;;;;;14.23;8.40;;;0.50;99.90;;;;;;5016097;28;20056;-78
2023/04/05 04:03:29;;;;;;;13.43;7.90;;;0.40;99.90;;;;;;5015955;28;20045;-78
2023/04/05 04:05:58;;;;;;;16.50;9.82;;;0.40;99.90;;;;;;5032543;28;20100;-78
2023/04/05 04:08:25;;;;;;;18.48;10.10;;;0.30;99.90;;;;;;4999967;28;20041;-78
2023/04/05 04:10:51;;;;;;;13.57;8.75;;;0.20;99.90;;;;;;5032659;28;20049;-78
2023/04/05 04:13:18;;;;;;;15.57;8.40;;;0.20;99.90;;;;;;5032125;28;20056;-78
2023/04/05 04:15:44;;;;;;;13.25;8.15;;;0.10;99.90;;;;;;5032556;28;20137;-78
2023/04/05 04:18:10;;;;;;;16.63;10.45;;;0.10;99.90;;;;;;5032555;28;20056;-78
2023/04/05 04:20:37;;;;;;;13.43;8.25;;;0.00;99.90;;;;;;5016266;28;20053;-78
2023/04/05 04:23:03;;;;;;;13.57;8.50;;;0.00;99.90;;;;;;5016139;28;20420;-79
2023/04/05 04:25:30;;;;;;;16.52;10.30;;;0.00;99.90;;;;;;5032585;28;20489;-80
2023/04/05 04:27:59;;;;;;;18.10;11.15;;;0.00;99.90;;;;;;5032472;28;20053;-80
2023/04/05 04:30:25;;;;;;;16.70;9.60;;;0.00;99.90;;;;;;5032453;28;20053;-80
2023/04/05 04:32:51;;;;;;;15.70;8.75;;;0.60;99.90;;;;;;5015883;28;20168;-80
2023/04/05 04:35:27;;;;;;;14.02;8.05;;;0.00;99.90;;;;;;5032502;28;20124;-80
2023/04/05 04:38:04;;;;;;;13.02;7.88;;;0.20;99.90;;;;;;5032452;28;20490;-80
2023/04/05 04:40:38;;;;;;;16.63;10.02;;;0.10;99.90;;;;;;5032442;28;20521;-80
2023/04/05 04:43:05;;;;;;;16.60;9.70;;;0.10;99.90;;;;;;5015950;28;20052;-80
2023/04/05 04:45:36;;;;;;;19.13;11.05;;;0.10;99.90;;;;;;5032574;28;20053;-80
2023/04/05 04:48:03;;;;;;;22.95;14.18;;;0.00;99.90;;;;;;5032411;28;20059;-80
2023/04/05 04:50:30;;;;;;;13.45;9.10;;;-0.10;99.90;;;;;;5016013;28;20060;-80
2023/04/05 04:52:58;;;;;;;15.55;9.50;;;0.10;99.90;;;;;;5015512;28;20550;-79
2023/04/05 04:55:25;;;;;;;16.70;9.43;;;-0.10;99.90;;;;;;5031725;28;20076;-80
2023/04/05 04:57:54;;;;;;;14.52;8.70;;;0.00;99.90;;;;;;5048931;28;20053;-79
2023/04/05 05:00:21;;;;;;;15.30;8.80;;;0.80;99.90;;;;;;5015792;28;20083;-80
2023/04/05 05:02:47;;;;;;;14.88;9.25;;;0.00;99.90;;;;;;5048963;28;20512;-80
2023/04/05 05:05:13;;;;;;;17.58;9.75;;;0.00;99.90;;;;;;5032226;28;20045;-79
2023/04/05 05:07:43;;;;;;;15.77;9.70;;;0.20;99.90;;;;;;5032143;28;20045;-80
2023/04/05 05:10:10;;;;;;;16.77;9.25;;;-0.10;99.90;;;;;;5052003;28;20045;-80
2023/04/05 05:12:37;;;;;;;14.40;9.15;;;-0.10;99.90;;;;;;5035929;28;20081;-80
2023/04/05 05:15:03;;;;;;;14.20;8.75;;;-0.10;99.90;;;;;;5019219;28;20477;-80
2023/04/05 05:17:31;;;;;;;13.50;8.60;;;-0.10;99.90;;;;;;5036124;28;20384;-79
2023/04/05 05:19:59;;;;;;;16.42;9.18;;;0.40;99.90;;;;;;5036853;28;20057;-80
2023/04/05 05:22:26;;;;;;;14.90;8.73;;;-0.10;99.90;;;;;;5035899;28;20049;-81
2023/04/05 05:24:52;;;;;;;13.88;9.00;;;0.00;99.90;;;;;;5035809;28;20045;-80
2023/04/05 05:27:18;;;;;;;16.30;9.80;;;0.00;99.90;;;;;;5019051;28;20049;-80
2023/04/05 05:29:44;;;;;;;16.15;9.32;;;0.00;99.90;;;;;;5035472;28;20045;-80
2023/04/05 05:32:14;;;;;;;16.13;9.05;;;0.00;99.90;;;;;;5035598;28;20095;-80
2023/04/05 05:34:41;;;;;;;15.25;8.73;;;0.10;99.90;;;;;;5019727;28;20481;-81
2023/04/05 05:37:08;;;;;;;16.52;9.38;;;0.00;99.90;;;;;;5035664;28;20049;-80
2023/04/05 05:39:35;;;;;;;13.40;8.60;;;0.00;99.90;;;;;;5018998;28;20048;-80
2023/04/05 05:42:02;;;;;;;17.08;9.48;;;0.80;99.90;;;;;;5035218;28;20049;-80
2023/04/05 05:44:28;;;;;;;15.88;9.48;;;0.80;99.90;;;;;;5002911;28;20053;-80
2023/04/05 05:46:54;;;;;;;18.95;10.82;;;0.10;99.90;;;;;;5018441;28;20132;-80
2023/04/05 05:49:20;;;;;;;20.13;11.18;;;0.70;99.90;;;;;;5035286;28;20137;-80
2023/04/05 05:51:46;;;;;;;20.05;12.68;;;0.00;99.90;;;;;;5002767;28;20045;-81
2023/04/05 05:54:12;;;;;;;20.77;12.80;;;0.20;99.90;;;;;;5035033;28;20107;-81
2023/04/05 05:56:38;;;;;;;20.02;12.98;;;0.40;99.90;;;;;;5002431;28;20527;-81
2023/04/05 05:59:06;;;;;;;22.08;13.43;;;0.50;99.90;;;;;;5034930;28;20493;-80
2023/04/05 06:01:37;;;;;;;21.02;13.82;;;0.70;99.90;;;;;;5034905;28;20049;-81
2023/04/05 06:04:05;;;;;;;19.20;13.27;;;1.00;99.90;;;;;;5035091;28;20212;-80
2023/04/05 06:06:32;;;;;;;21.02;13.60;;;1.40;99.90;;;;;;5035052;28;20075;-80
2023/04/05 06:09:01;;;;;;;20.05;13.73;;;1.50;99.90;;;;;;5034769;28;20049;-80
2023/04/05 06:11:26;;;;;;;19.52;14.38;;;1.60;99.90;;;;;;5018411;28;20144;-80
2023/04/05 06:13:54;;;;;;;25.65;14.35;;;1.90;99.90;;;;;;5034580;28;20517;-80
2023/04/05 06:16:23;;;;;;;20.88;12.75;;;2.50;99.90;;;;;;5018370;28;20095;-80
2023/04/05 06:18:51;;;;;;;16.55;11.57;;;2.90;99.90;;;;;;5034801;28;20485;-80
2023/04/05 06:21:17;;;;;;;20.20;12.93;;;3.10;99.90;;;;;;5018601;28;20103;-80
2023/04/05 06:23:43;;;;;;;20.27;13.48;;;3.60;99.90;;;;;;5001987;28;20049;-80
2023/04/05 06:26:14;;;;;;;17.17;11.38;;;4.50;99.90;;;;;;5017988;28;20046;-80
2023/04/05 06:28:40;;;;;;;16.85;10.38;;;5.00;99.90;;;;;;5034702;28;20056;-81
2023/04/05 06:31:06;;;;;;;17.27;10.98;;;5.40;99.90;;;;;;5018312;28;20045;-78
2023/04/05 06:33:31;;;;;;;16.17;10.68;;;5.40;99.90;;;;;;5017746;28;20393;-80
2023/04/05 06:35:57;;;;;;;19.08;10.48;;;5.80;99.90;;;;;;5034441;28;20394;-80
2023/04/05 06:38:23;;;;;;;17.05;10.43;;;6.60;99.90;;;;;;5034429;28;20050;-81
2023/04/05 06:40:49;;;;;;;14.20;9.90;;;6.90;99.90;;;;;;5034041;28;20091;-81
2023/04/05 06:43:17;;;;;;;13.50;9.75;;;7.40;99.90;;;;;;4975522;28;20071;-80
2023/04/05 06:45:43;;;;;;;14.38;9.65;;;7.60;99.90;;;;;;5026427;28;20057;-81
2023/04/05 06:48:09;;;;;;;15.00;9.50;;;8.10;99.90;;;;;;4985397;28;20048;-81
2023/04/05 06:50:35;;;;;;;12.68;9.55;;;8.70;99.90;;;;;;5001608;28;20089;-79
2023/04/05 06:53:02;;;;;;;14.07;8.82;;;9.00;97.10;;;;;;5033904;28;20076;-79
2023/04/05 06:55:28;;;;;;;14.40;9.00;;;8.90;99.90;;;;;;5033865;28;20069;-82
2023/04/05 06:57:54;;;;;;;13.52;8.93;;;8.60;98.50;;;;;;5034133;28;20417;-79
2023/04/05 07:00:20;;;;;;;14.68;9.82;;;8.90;98.90;;;;;;5034044;28;20103;-81
2023/04/05 07:02:46;;;;;;;15.30;9.20;;;9.00;96.80;;;;;;5001434;28;20448;-81
2023/04/05 07:05:12;;;;;;;12.48;8.93;;;9.60;96.80;;;;;;5001407;28;20041;-80
2023/04/05 07:07:39;;;;;;;13.80;9.15;;;9.60;96.70;;;;;;5001300;28;20044;-81
2023/04/05 07:10:06;;;;;;;13.57;8.80;;;9.70;95.10;;;;;;5033800;28;20059;-81
2023/04/05 07:12:31;;;;;;;13.85;8.82;;;9.90;94.70;;;;;;5033587;28;20042;-81
2023/04/05 07:14:58;;;;;;;13.60;7.97;;;10.00;96.00;;;;;;5033576;28;20041;-81
2023/04/05 07:17:24;;;;;;;13.77;8.95;;;9.80;93.40;;;;;;5033339;28;20095;-81
2023/04/05 07:19:50;;;;;;;12.90;8.82;;;9.80;95.00;;;;;;5016990;28;20439;-82
2023/04/05 07:22:19;;;;;;;13.52;8.70;;;9.80;94.60;;;;;;5016911;28;20046;-82
2023/04/05 07:24:45;;;;;;;14.50;8.75;;;10.40;93.30;;;;;;5033573;28;20493;-82
2023/04/05 07:27:11;;;;;;;12.45;8.73;;;10.50;93.50;;;;;;5016994;28;20129;-83
2023/04/05 07:29:39;;;;;;;12.90;9.02;;;10.40;92.70;;;;;;5017005;28;20064;-83
2023/04/05 07:32:08;;;;;;;12.32;9.35;;;9.80;93.00;;;;;;5032984;28;20081;-82
2023/04/05 07:34:34;;;;;;;13.13;8.45;;;9.60;95.20;;;;;;5016843;28;20053;-82
2023/04/05 07:37:00;;;;;;;13.05;9.05;;;9.90;92.80;;;;;;5033352;28;20401;-82
2023/04/05 07:39:26;;;;;;;13.07;8.15;;;9.20;94.10;;;;;;5033058;28;20049;-82
2023/04/05 07:41:54;;;;;;;14.50;8.82;;;9.40;93.80;;;;;;5001314;28;20465;-82
2023/04/05 07:44:20;;;;;;;14.63;9.07;;;9.00;93.70;;;;;;5032937;28;20060;-82
2023/04/05 07:46:46;;;;;;;12.05;7.90;;;9.00;95.00;;;;;;5033176;28;20437;-82
2023/04/05 07:49:11;;;;;;;13.02;8.13;;;9.80;95.30;;;;;;5032857;28;20043;-82
2023/04/05 07:51:37;;;;;;;14.05;8.25;;;10.30;94.00;;;;;;5016628;28;20045;-83
2023/04/05 07:54:07;;;;;;;13.68;8.10;;;10.90;93.10;;;;;;5032809;28;20104;-82
2023/04/05 07:56:32;;;;;;;10.80;7.65;;;11.20;91.70;;;;;;5049030;28;20068;-83
2023/04/05 07:58:58;;;;;;;13.60;8.73;;;10.90;90.70;;;;;;5016338;28;20045;-82
2023/04/05 08:01:27;;;;;;;12.10;8.18;;;10.80;90.70;;;;;;5016114;28;20056;-82
2023/04/05 08:03:57;;;;;;;12.45;7.75;;;10.30;90.40;;;;;;5016898;28;20045;-82
2023/04/05 08:06:23;;;;;;;12.23;8.10;;;9.90;91.20;;;;;;5032836;28;20057;-82
2023/04/05 08:08:49;;;;;;;11.55;7.57;;;9.90;92.40;;;;;;5016526;28;20049;-82
2023/04/05 08:11:15;;;;;;;10.68;7.15;;;9.90;90.90;;;;;;5032663;28;20045;-82
2023/04/05 08:13:41;;;;;;;12.43;7.10;;;10.00;92.00;;;;;;5015871;28;20183;-82
2023/04/05 08:16:08;;;;;;;10.77;7.10;;;10.00;90.50;;;;;;5032685;28;20049;-82
2023/04/05 08:18:34;;;;;;;12.13;6.85;;;10.00;90.90;;;;;;5032475;28;20409;-83
2023/04/05 08:21:00;;;;;;;11.38;6.82;;;10.00;87.90;;;;;;5032569;28;20056;-82
2023/04/05 08:23:26;;;;;;;11.40;7.13;;;10.10;89.20;;;;;;4997981;28;20050;-83
2023/04/05 08:25:52;;;;;;;10.43;5.82;;;10.20;90.10;;;;;;5012917;28;20329;-82
2023/04/05 08:28:18;;;;;;;8.95;5.78;;;10.20;81.20;;;;;;5012339;28;20115;-82
2023/04/05 08:30:50;;;;;;;8.90;5.25;;;10.20;82.70;;;;;;4996478;28;20426;-82
2023/04/05 08:33:16;;;;;;;11.00;6.18;;;10.30;82.40;;;;;;5012678;28;20552;-81
2023/04/05 08:35:42;;;;;;;10.90;5.50;;;10.40;82.70;;;;;;5012788;28;20097;-81
2023/04/05 08:38:11;;;;;;;9.05;6.10;;;10.50;81.00;;;;;;4996155;28;20394;-82
2023/04/05 08:40:46;;;;;;;9.48;5.95;;;10.70;81.40;;;;;;5012745;28;20139;-82
2023/04/05 08:43:16;;;;;;;10.05;5.72;;;11.00;81.20;;;;;;4995796;28;20060;-82
2023/04/05 08:45:48;;;;;;;8.43;4.88;;;11.20;82.20;;;;;;5016826;28;20056;-81
2023/04/05 08:48:15;;;;;;;8.45;5.30;;;11.10;77.40;;;;;;5016809;28;20041;-81
2023/04/05 08:50:41;;;;;;;8.55;5.30;;;11.00;78.70;;;;;;5016758;28;20054;-82
2023/04/05 08:53:10;;;;;;;9.25;5.22;;;11.00;78.60;;;;;;5032368;28;20059;-81
2023/04/05 08:55:38;;;;;;;9.07;5.50;;;11.10;73.30;;;;;;5036256;28;20103;-81
2023/04/05 08:58:13;;;;;;;9.77;6.30;;;11.00;73.50;;;;;;5036373;28;20128;-81
2023/04/05 09:00:40;;;;;;;9.93;4.90;;;10.80;75.20;;;;;;5036311;28;20042;-81
2023/04/05 09:03:11;;;;;;;8.30;4.95;;;11.20;74.00;;;;;;5036399;28;20132;-81
2023/04/05 09:05:39;;;;;;;9.20;4.85;;;11.40;73.30;;;;;;5019827;28;20122;-82
2023/04/05 09:08:06;;;;;;;7.68;4.60;;;11.60;68.30;;;;;;5019677;28;20081;-81
2023/04/05 09:10:32;;;;;;;8.13;4.65;;;11.50;65.20;;;;;;5019723;28;20136;-81
2023/04/05 09:12:59;;;;;;;9.45;5.40;;;11.60;63.50;;;;;;5035945;28;20549;-81
2023/04/05 09:15:25;;;;;;;8.23;4.50;;;11.50;66.60;;;;;;5019622;28;20049;-81
2023/04/05 09:17:56;;;;;;;9.07;4.53;;;11.40;64.40;;;;;;5035997;28;20065;-81
2023/04/05 09:20:22;;;;;;;8.70;4.70;;;11.20;64.70;;;;;;5019480;28;20048;-81
2023/04/05 09:22:48;;;;;;;7.13;3.47;;;11.40;66.40;;;;;;5035911;28;20076;-82
2023/04/05 09:25:38;;;;;;;7.65;4.30;;;11.60;63.60;;;;;;5035891;28;20041;-82
2023/04/05 09:28:11;;;;;;;8.63;4.15;;;11.50;62.10;;;;;;5035575;28;20080;-81
2023/04/05 09:30:36;;;;;;;7.15;3.20;;;11.80;61.20;;;;;;5019121;28;20055;-81
2023/04/05 09:33:06;;;;;;;8.05;4.20;;;12.00;61.50;;;;;;5018772;28;20045;-81
2023/04/05 09:35:32;;;;;;;7.97;4.60;;;11.80;60.90;;;;;;5018993;28;20095;-80
2023/04/05 09:38:00;;;;;;;9.35;3.63;;;12.10;62.10;;;;;;5018883;28;20053;-80
2023/04/05 09:40:50;;;;;;;8.55;3.80;;;12.20;59.90;;;;;;5035094;28;20050;-80
2023/04/05 09:43:35;;;;;;;6.78;2.80;;;12.20;58.00;;;;;;5035507;28;20057;-80
2023/04/05 09:46:01;;;;;;;6.93;3.30;;;12.20;56.70;;;;;;5018659;28;20046;-79
2023/04/05 09:48:46;;;;;;;7.72;4.00;;;12.20;58.30;;;;;;5035449;28;20137;-81
2023/04/05 09:51:16;;;;;;;6.72;3.50;;;12.10;57.50;;;;;;5002736;28;20196;-79
2023/04/05 09:54:11;;;;;;;6.93;3.33;;;12.10;57.90;;;;;;5018675;28;20123;-80
2023/04/05 09:56:39;;;;;;;6.78;3.53;;;12.10;54.40;;;;;;5014026;28;20132;-80
2023/04/05 09:59:16;;;;;;;7.97;3.97;;;12.10;53.70;;;;;;5034982;28;20057;-80
2023/04/05 10:01:51;;;;;;;7.85;4.50;;;12.00;54.90;;;;;;5035058;28;20061;-81
2023/04/05 10:04:18;;;;;;;6.85;3.85;;;11.80;55.30;;;;;;5034950;28;20472;-80
2023/04/05 10:06:44;;;;;;;8.63;4.10;;;11.80;55.20;;;;;;5034425;28;20045;-80
2023/04/05 10:09:13;;;;;;;7.65;4.40;;;11.90;56.00;;;;;;5034682;28;20057;-79
2023/04/05 10:11:41;;;;;;;7.82;4.20;;;12.20;52.50;;;;;;5034939;28;20046;-81
2023/04/05 10:14:07;;;;;;;7.63;4.30;;;12.10;53.60;;;;;;5018015;28;20460;-80
2023/04/05 10:16:43;;;;;;;9.40;4.20;;;11.90;53.50;;;;;;5034624;28;20048;-80
2023/04/05 10:19:23;;;;;;;7.15;4.50;;;12.00;55.30;;;;;;5034906;28;20088;-80
2023/04/05 10:21:51;;;;;;;7.82;4.50;;;12.10;54.30;;;;;;5034775;28;20049;-81
2023/04/05 10:24:26;;;;;;;8.07;4.18;;;12.30;55.00;;;;;;5018319;28;20089;-80
2023/04/05 10:27:09;;;;;;;7.65;4.20;;;12.40;54.90;;;;;;5034735;28;20045;-79
2023/04/05 10:30:01;;;;;;;8.70;4.32;;;12.70;54.10;;;;;;5017957;28;20046;-80
2023/04/05 10:32:37;;;;;;;8.07;4.20;;;12.60;52.20;;;;;;5034557;28;20084;-79
2023/04/05 10:35:21;;;;;;;7.72;4.28;;;12.80;55.10;;;;;;5034608;28;20478;-79
2023/04/05 10:38:12;;;;;;;7.35;3.92;;;12.40;50.80;;;;;;5034357;28;20450;-80
2023/04/05 10:40:42;;;;;;;8.35;4.30;;;12.40;54.10;;;;;;5033868;28;20060;-80
2023/04/05 10:43:16;;;;;;;8.10;4.28;;;12.60;50.20;;;;;;5017683;28;20045;-80
2023/04/05 10:45:45;;;;;;;7.05;4.10;;;12.60;50.40;;;;;;5034284;28;20088;-80
2023/04/05 10:48:27;;;;;;;7.85;4.18;;;12.70;51.70;;;;;;5034405;28;20133;-79
2023/04/05 10:50:54;;;;;;;8.77;4.30;;;12.70;50.40;;;;;;5034250;28;20050;-80
2023/04/05 10:53:21;;;;;;;8.27;4.18;;;12.80;52.00;;;;;;5017453;28;20057;-80
2023/04/05 10:55:48;;;;;;;7.80;4.32;;;12.90;49.70;;;;;;5050431;28;20128;-80
2023/04/05 10:58:15;;;;;;;8.18;4.53;;;12.80;50.10;;;;;;5033733;28;20457;-80
2023/04/05 11:00:41;;;;;;;7.57;4.43;;;13.10;52.90;;;;;;5050845;28;20401;-81
2023/04/05 11:03:07;;;;;;;8.23;4.22;;;13.10;52.20;;;;;;5034137;28;20061;-80
2023/04/05 11:05:36;;;;;;;7.35;4.20;;;12.80;51.40;;;;;;5050495;28;20097;-81
2023/04/05 11:08:05;;;;;;;8.85;4.60;;;12.90;49.60;;;;;;5016917;28;20131;-80
2023/04/05 11:10:34;;;;;;;9.57;5.03;;;12.70;50.10;;;;;;5017465;28;20089;-80
2023/04/05 11:13:01;;;;;;;8.07;4.00;;;12.40;47.70;;;;;;5033617;28;20053;-81
2023/04/05 11:15:26;;;;;;;7.53;4.50;;;11.90;50.70;;;;;;5050432;28;20049;-80
2023/04/05 11:18:09;;;;;;;9.45;4.38;;;11.80;49.50;;;;;;5033726;28;20052;-81
2023/04/05 11:20:54;;;;;;;8.65;4.68;;;11.80;51.50;;;;;;5050103;28;20057;-80
2023/04/05 11:23:24;;;;;;;7.32;3.83;;;11.90;51.00;;;;;;5049882;28;20509;-79
2023/04/05 11:25:56;;;;;;;6.43;3.72;;;12.10;50.00;;;;;;5033043;28;20095;-80
2023/04/05 11:28:24;;;;;;;7.13;4.00;;;12.20;49.90;;;;;;5033299;28;20453;-80
2023/04/05 11:30:57;;;;;;;7.68;3.95;;;12.10;48.70;;;;;;5016895;28;20061;-81
2023/04/05 11:33:58;;;;;;;8.23;4.28;;;12.00;48.50;;;;;;5033218;28;20412;-79
2023/04/05 11:36:44;;;;;;;9.07;4.18;;;12.00;51.20;;;;;;5033361;28;20087;-80
2023/04/05 11:39:22;;;;;;;8.18;4.10;;;12.10;50.50;;;;;;5050042;28;20409;-80
2023/04/05 11:42:01;;;;;;;8.85;4.10;;;12.10;49.30;;;;;;5049529;28;20187;-80
2023/04/05 11:44:30;;;;;;;7.25;3.88;;;12.10;50.90;;;;;;5033257;28;20045;-80
2023/04/05 11:46:56;;;;;;;7.78;4.18;;;12.20;48.80;;;;;;5033232;28;20550;-79
2023/04/05 11:49:24;;;;;;;7.22;4.10;;;12.20;49.10;;;;;;4984007;28;20049;-80
2023/04/05 11:51:51;;;;;;;7.63;4.40;;;12.00;50.10;;;;;;5033061;28;20049;-80
2023/04/05 11:54:33;;;;;;;7.05;4.18;;;12.10;51.50;;;;;;5032785;28;20059;-79
2023/04/05 11:57:01;;;;;;;7.55;4.05;;;12.40;52.00;;;;;;4977143;28;20104;-78
2023/04/05 11:59:34;;;;;;;7.18;3.97;;;12.60;49.60;;;;;;4993827;28;20050;-80
2023/04/05 12:02:06;;;;;;;8.05;3.85;;;12.40;48.80;;;;;;4993116;28;20100;-80
2023/04/05 12:04:33;;;;;;;7.72;4.00;;;12.30;48.50;;;;;;4977364;28;20053;-81
2023/04/05 12:07:19;;;;;;;9.40;4.15;;;12.40;52.00;;;;;;4993563;28;20057;-79
2023/04/05 12:10:01;;;;;;;8.07;4.28;;;12.50;48.20;;;;;;4993534;28;20105;-79
2023/04/05 12:12:41;;;;;;;7.78;4.00;;;12.50;50.00;;;;;;4977213;28;20049;-79
2023/04/05 12:15:09;;;;;;;7.13;4.38;;;12.30;49.90;;;;;;4993446;28;20050;-80
2023/04/05 12:17:39;;;;;;;7.68;4.00;;;12.20;52.20;;;;;;4993172;28;20051;-80
2023/04/05 12:20:05;;;;;;;7.20;4.00;;;12.20;51.80;;;;;;4993173;28;20451;-80
2023/04/05 12:22:31;;;;;;;7.63;4.20;;;12.20;48.30;;;;;;4993311;28;20081;-80
2023/04/05 12:24:57;;;;;;;8.15;3.90;;;12.10;48.40;;;;;;4977100;28;20475;-80
2023/04/05 12:27:24;;;;;;;8.60;4.40;;;12.20;48.80;;;;;;4976993;28;20053;-80
2023/04/05 12:30:10;;;;;;;8.30;4.50;;;11.80;49.70;;;;;;4993255;28;20054;-80
2023/04/05 12:32:57;;;;;;;9.00;4.13;;;11.70;49.10;;;;;;4993166;28;20069;-80
2023/04/05 12:35:31;;;;;;;9.00;4.43;;;11.90;47.80;;;;;;4992929;28;20177;-80
2023/04/05 12:38:02;;;;;;;7.78;4.50;;;11.70;50.50;;;;;;4992987;28;20113;-79
2023/04/05 12:40:31;;;;;;;8.48;3.92;;;11.60;48.10;;;;;;4993167;28;20049;-80
2023/04/05 12:43:07;;;;;;;8.48;4.38;;;11.70;49.90;;;;;;4977144;28;20054;-80
2023/04/05 12:45:38;;;;;;;7.28;4.00;;;11.90;51.30;;;;;;4976937;28;20112;-81
2023/04/05 12:48:35;;;;;;;7.43;4.30;;;12.10;50.90;;;;;;4993089;28;20110;-80
2023/04/05 12:51:04;;;;;;;8.10;3.88;;;12.00;48.60;;;;;;4981232;28;20093;-80
2023/04/05 12:53:30;;;;;;;7.75;4.25;;;12.00;47.90;;;;;;4992386;28;20633;-81
2023/04/05 12:56:00;;;;;;;7.20;3.97;;;11.80;48.80;;;;;;4984577;28;20056;-80